sensor_id;sensor_type;location;lat;lon;timestamp;pressure;altitude;pressure_sealevel;temperature;humidity
67740;BME280;54536;50.090;14.420;2023-03-14T00:00:49;97761.25;;;14.04;58.87
67740;BME280;54536;50.090;14.420;2023-03-14T00:03:20;97766.13;;;14.07;58.73
67740;BME280;54536;50.090;14.420;2023-03-14T00:05:46;97772.25;;;14.08;58.37
67740;BME280;54536;50.090;14.420;2023-03-14T00:08:13;97769.81;;;14.13;58.57
67740;BME280;54536;50.090;14.420;2023-03-14T00:10:39;97784.66;;;14.14;58.94
67740;BME280;54536;50.090;14.420;2023-03-14T00:13:06;97786.09;;;14.10;59.00
67740;BME280;54536;50.090;14.420;2023-03-14T00:15:35;97793.78;;;14.11;58.69
67740;BME280;54536;50.090;14.420;2023-03-14T00:18:02;97778.78;;;14.18;58.61
67740;BME280;54536;50.090;14.420;2023-03-14T00:20:28;97774.66;;;14.02;59.31
67740;BME280;54536;50.090;14.420;2023-03-14T00:22:55;97755.34;;;14.09;59.04
67740;BME280;54536;50.090;14.420;2023-03-14T00:25:21;97749.28;;;14.15;59.01
67740;BME280;54536;50.090;14.420;2023-03-14T00:27:51;97748.69;;;14.19;59.04
67740;BME280;54536;50.090;14.420;2023-03-14T00:30:19;97746.44;;;14.16;59.52
67740;BME280;54536;50.090;14.420;2023-03-14T00:32:45;97738.09;;;14.13;59.09
67740;BME280;54536;50.090;14.420;2023-03-14T00:35:11;97737.50;;;14.24;58.85
67740;BME280;54536;50.090;14.420;2023-03-14T00:37:43;97733.66;;;14.20;59.60
67740;BME280;54536;50.090;14.420;2023-03-14T00:40:10;97711.47;;;14.14;59.29
67740;BME280;54536;50.090;14.420;2023-03-14T00:42:36;97700.44;;;13.97;59.60
67740;BME280;54536;50.090;14.420;2023-03-14T00:45:03;97662.03;;;14.01;59.83
67740;BME280;54536;50.090;14.420;2023-03-14T00:47:29;97650.66;;;14.01;59.97
67740;BME280;54536;50.090;14.420;2023-03-14T00:49:55;97612.63;;;13.95;60.68
67740;BME280;54536;50.090;14.420;2023-03-14T00:52:22;97623.81;;;13.97;61.06
67740;BME280;54536;50.090;14.420;2023-03-14T00:54:48;97577.28;;;13.96;61.34
67740;BME280;54536;50.090;14.420;2023-03-14T00:57:14;97567.28;;;13.92;61.20
67740;BME280;54536;50.090;14.420;2023-03-14T00:59:40;97567.28;;;13.78;60.88
67740;BME280;54536;50.090;14.420;2023-03-14T01:02:06;97560.56;;;13.76;60.46
67740;BME280;54536;50.090;14.420;2023-03-14T01:04:33;97553.66;;;13.68;60.74
67740;BME280;54536;50.090;14.420;2023-03-14T01:07:00;97567.28;;;13.72;60.16
67740;BME280;54536;50.090;14.420;2023-03-14T01:09:26;97575.03;;;13.80;60.31
67740;BME280;54536;50.090;14.420;2023-03-14T01:11:52;97558.94;;;13.68;61.67
67740;BME280;54536;50.090;14.420;2023-03-14T01:14:18;97538.63;;;13.69;61.89
67740;BME280;54536;50.090;14.420;2023-03-14T01:16:45;97511.56;;;13.47;62.50
67740;BME280;54536;50.090;14.420;2023-03-14T01:19:11;97503.06;;;13.45;62.79
67740;BME280;54536;50.090;14.420;2023-03-14T01:21:38;97506.72;;;13.57;61.92
67740;BME280;54536;50.090;14.420;2023-03-14T01:24:06;97543.88;;;13.42;62.38
67740;BME280;54536;50.090;14.420;2023-03-14T01:26:34;97531.88;;;13.46;62.47
67740;BME280;54536;50.090;14.420;2023-03-14T01:29:01;97530.25;;;13.45;62.20
67740;BME280;54536;50.090;14.420;2023-03-14T01:31:28;97523.56;;;13.43;62.39
67740;BME280;54536;50.090;14.420;2023-03-14T01:33:54;97537.59;;;13.56;62.31
67740;BME280;54536;50.090;14.420;2023-03-14T01:36:20;97530.91;;;13.54;62.30
67740;BME280;54536;50.090;14.420;2023-03-14T01:38:47;97536.78;;;13.63;61.99
67740;BME280;54536;50.090;14.420;2023-03-14T01:41:19;97534.53;;;13.59;62.03
67740;BME280;54536;50.090;14.420;2023-03-14T01:43:47;97501.22;;;13.58;62.06
67740;BME280;54536;50.090;14.420;2023-03-14T01:46:21;97495.94;;;13.52;62.70
67740;BME280;54536;50.090;14.420;2023-03-14T01:49:31;97506.53;;;13.58;62.31
67740;BME280;54536;50.090;14.420;2023-03-14T01:51:56;97524.19;;;13.58;61.72
67740;BME280;54536;50.090;14.420;2023-03-14T01:54:40;97512.59;;;13.52;62.14
67740;BME280;54536;50.090;14.420;2023-03-14T01:57:22;97521.16;;;13.54;61.93
67740;BME280;54536;50.090;14.420;2023-03-14T01:59:59;97502.84;;;13.53;62.45
67740;BME280;54536;50.090;14.420;2023-03-14T02:02:28;97496.97;;;13.57;62.00
67740;BME280;54536;50.090;14.420;2023-03-14T02:04:57;97500.03;;;13.54;62.85
67740;BME280;54536;50.090;14.420;2023-03-14T02:09:56;97504.03;;;13.44;63.34
67740;BME280;54536;50.090;14.420;2023-03-14T02:12:23;97500.19;;;13.46;62.42
67740;BME280;54536;50.090;14.420;2023-03-14T02:14:49;97494.09;;;13.46;63.11
67740;BME280;54536;50.090;14.420;2023-03-14T02:17:18;97495.72;;;13.40;63.31
67740;BME280;54536;50.090;14.420;2023-03-14T02:20:10;97523.78;;;13.48;62.35
67740;BME280;54536;50.090;14.420;2023-03-14T02:22:37;97520.31;;;13.47;62.76
67740;BME280;54536;50.090;14.420;2023-03-14T02:25:15;97519.50;;;13.47;62.05
67740;BME280;54536;50.090;14.420;2023-03-14T02:27:45;97527.22;;;13.42;62.32
67740;BME280;54536;50.090;14.420;2023-03-14T02:30:24;97537.38;;;13.38;62.77
67740;BME280;54536;50.090;14.420;2023-03-14T02:32:59;97536.75;;;13.36;62.48
67740;BME280;54536;50.090;14.420;2023-03-14T02:35:33;97545.88;;;13.40;62.54
67740;BME280;54536;50.090;14.420;2023-03-14T02:38:13;97558.06;;;13.34;63.01
67740;BME280;54536;50.090;14.420;2023-03-14T02:40:41;97555.59;;;13.26;62.70
67740;BME280;54536;50.090;14.420;2023-03-14T02:43:08;97548.09;;;13.37;62.40
67740;BME280;54536;50.090;14.420;2023-03-14T02:45:39;97549.16;;;13.42;62.80
67740;BME280;54536;50.090;14.420;2023-03-14T02:48:29;97534.91;;;13.37;62.74
67740;BME280;54536;50.090;14.420;2023-03-14T02:50:57;97516.84;;;13.40;62.72
67740;BME280;54536;50.090;14.420;2023-03-14T02:53:32;97508.72;;;13.28;62.52
67740;BME280;54536;50.090;14.420;2023-03-14T02:55:59;97488.41;;;13.35;62.54
67740;BME280;54536;50.090;14.420;2023-03-14T02:58:26;97476.66;;;13.38;63.01
67740;BME280;54536;50.090;14.420;2023-03-14T03:00:53;97453.47;;;13.27;62.32
67740;BME280;54536;50.090;14.420;2023-03-14T03:03:20;97448.00;;;13.28;62.51
67740;BME280;54536;50.090;14.420;2023-03-14T03:05:54;97432.94;;;13.16;62.94
67740;BME280;54536;50.090;14.420;2023-03-14T03:08:23;97443.09;;;13.19;62.86
67740;BME280;54536;50.090;14.420;2023-03-14T03:10:50;97471.31;;;13.18;62.95
67740;BME280;54536;50.090;14.420;2023-03-14T03:13:16;97476.31;;;13.00;63.52
67740;BME280;54536;50.090;14.420;2023-03-14T03:15:43;97474.88;;;12.91;63.99
67740;BME280;54536;50.090;14.420;2023-03-14T03:18:10;97467.00;;;13.04;63.42
67740;BME280;54536;50.090;14.420;2023-03-14T03:20:37;97455.00;;;13.01;64.00
67740;BME280;54536;50.090;14.420;2023-03-14T03:23:04;97447.31;;;13.00;63.54
67740;BME280;54536;50.090;14.420;2023-03-14T03:25:31;97446.50;;;13.06;63.26
67740;BME280;54536;50.090;14.420;2023-03-14T03:27:57;97445.09;;;13.10;63.64
67740;BME280;54536;50.090;14.420;2023-03-14T03:30:24;97440.19;;;13.00;63.59
67740;BME280;54536;50.090;14.420;2023-03-14T03:32:50;97436.97;;;12.98;63.29
67740;BME280;54536;50.090;14.420;2023-03-14T03:35:16;97438.78;;;13.04;63.41
67740;BME280;54536;50.090;14.420;2023-03-14T03:37:42;97440.81;;;12.96;63.79
67740;BME280;54536;50.090;14.420;2023-03-14T03:40:10;97430.66;;;12.99;63.67
67740;BME280;54536;50.090;14.420;2023-03-14T03:42:36;97436.38;;;13.09;63.07
67740;BME280;54536;50.090;14.420;2023-03-14T03:45:03;97433.69;;;12.96;63.94
67740;BME280;54536;50.090;14.420;2023-03-14T03:47:31;97442.41;;;12.90;63.98
67740;BME280;54536;50.090;14.420;2023-03-14T03:49:57;97459.47;;;13.01;63.64
67740;BME280;54536;50.090;14.420;2023-03-14T03:52:23;97477.53;;;12.97;64.55
67740;BME280;54536;50.090;14.420;2023-03-14T03:54:50;97475.53;;;12.99;64.24
67740;BME280;54536;50.090;14.420;2023-03-14T03:57:16;97468.63;;;12.98;64.24
67740;BME280;54536;50.090;14.420;2023-03-14T03:59:42;97467.59;;;12.99;64.40
67740;BME280;54536;50.090;14.420;2023-03-14T04:02:08;97461.94;;;13.02;63.54
67740;BME280;54536;50.090;14.420;2023-03-14T04:04:34;97470.88;;;13.08;63.79
67740;BME280;54536;50.090;14.420;2023-03-14T04:07:00;97474.91;;;12.97;64.24
67740;BME280;54536;50.090;14.420;2023-03-14T04:09:27;97476.53;;;12.98;63.81
67740;BME280;54536;50.090;14.420;2023-03-14T04:11:53;97477.94;;;13.01;64.40
67740;BME280;54536;50.090;14.420;2023-03-14T04:14:19;97482.22;;;13.02;64.04
67740;BME280;54536;50.090;14.420;2023-03-14T04:16:45;97478.59;;;13.09;63.70
67740;BME280;54536;50.090;14.420;2023-03-14T04:19:11;97484.47;;;13.05;63.79
67740;BME280;54536;50.090;14.420;2023-03-14T04:21:37;97488.75;;;13.12;63.50
67740;BME280;54536;50.090;14.420;2023-03-14T04:24:09;97481.25;;;13.16;63.01
67740;BME280;54536;50.090;14.420;2023-03-14T04:26:35;97475.16;;;13.16;63.70
67740;BME280;54536;50.090;14.420;2023-03-14T04:29:02;97475.63;;;13.32;62.75
67740;BME280;54536;50.090;14.420;2023-03-14T04:31:28;97465.63;;;13.21;63.30
67740;BME280;54536;50.090;14.420;2023-03-14T04:33:54;97470.28;;;13.12;63.32
67740;BME280;54536;50.090;14.420;2023-03-14T04:36:20;97471.13;;;13.26;63.13
67740;BME280;54536;50.090;14.420;2023-03-14T04:38:47;97472.97;;;13.26;63.53
67740;BME280;54536;50.090;14.420;2023-03-14T04:41:13;97483.25;;;13.07;63.70
67740;BME280;54536;50.090;14.420;2023-03-14T04:43:39;97482.25;;;13.08;63.70
67740;BME280;54536;50.090;14.420;2023-03-14T04:46:05;97478.38;;;13.11;63.53
67740;BME280;54536;50.090;14.420;2023-03-14T04:48:31;97478.81;;;13.15;63.36
67740;BME280;54536;50.090;14.420;2023-03-14T04:50:57;97473.47;;;13.01;63.95
67740;BME280;54536;50.090;14.420;2023-03-14T04:53:24;97487.31;;;13.17;63.64
67740;BME280;54536;50.090;14.420;2023-03-14T04:55:52;97483.88;;;13.23;63.50
67740;BME280;54536;50.090;14.420;2023-03-14T04:58:20;97480.28;;;13.30;63.02
67740;BME280;54536;50.090;14.420;2023-03-14T05:00:47;97487.38;;;13.37;62.43
67740;BME280;54536;50.090;14.420;2023-03-14T05:03:18;97487.59;;;13.35;62.91
67740;BME280;54536;50.090;14.420;2023-03-14T05:05:45;97487.81;;;13.47;62.43
67740;BME280;54536;50.090;14.420;2023-03-14T05:08:11;97472.19;;;13.45;62.43
67740;BME280;54536;50.090;14.420;2023-03-14T05:10:37;97449.44;;;13.51;62.18
67740;BME280;54536;50.090;14.420;2023-03-14T05:13:04;97453.69;;;13.58;61.30
67740;BME280;54536;50.090;14.420;2023-03-14T05:15:30;97460.19;;;13.56;61.69
67740;BME280;54536;50.090;14.420;2023-03-14T05:17:56;97458.75;;;13.53;61.95
67740;BME280;54536;50.090;14.420;2023-03-14T05:20:22;97459.38;;;13.55;61.57
67740;BME280;54536;50.090;14.420;2023-03-14T05:22:48;97465.88;;;13.53;61.39
67740;BME280;54536;50.090;14.420;2023-03-14T05:25:14;97451.88;;;13.52;62.05
67740;BME280;54536;50.090;14.420;2023-03-14T05:27:41;97451.88;;;13.59;61.49
67740;BME280;54536;50.090;14.420;2023-03-14T05:30:08;97446.41;;;13.67;61.65
67740;BME280;54536;50.090;14.420;2023-03-14T05:32:34;97447.78;;;13.70;61.28
67740;BME280;54536;50.090;14.420;2023-03-14T05:35:01;97448.00;;;13.75;61.01
67740;BME280;54536;50.090;14.420;2023-03-14T05:37:27;97446.78;;;13.77;61.09
67740;BME280;54536;50.090;14.420;2023-03-14T05:39:53;97447.38;;;13.73;61.55
67740;BME280;54536;50.090;14.420;2023-03-14T05:42:19;97452.25;;;13.76;60.78
67740;BME280;54536;50.090;14.420;2023-03-14T05:44:45;97448.00;;;13.75;61.18
67740;BME280;54536;50.090;14.420;2023-03-14T05:47:12;97450.44;;;13.76;60.63
67740;BME280;54536;50.090;14.420;2023-03-14T05:49:37;97459.78;;;13.79;61.07
67740;BME280;54536;50.090;14.420;2023-03-14T05:52:04;97450.88;;;13.73;61.22
67740;BME280;54536;50.090;14.420;2023-03-14T05:54:30;97453.06;;;13.76;61.33
67740;BME280;54536;50.090;14.420;2023-03-14T05:56:56;97440.06;;;13.81;60.57
67740;BME280;54536;50.090;14.420;2023-03-14T05:59:22;97439.47;;;13.73;61.21
67740;BME280;54536;50.090;14.420;2023-03-14T06:01:49;97442.72;;;13.75;61.09
67740;BME280;54536;50.090;14.420;2023-03-14T06:04:15;97446.59;;;13.66;61.36
67740;BME280;54536;50.090;14.420;2023-03-14T06:06:41;97439.28;;;13.74;60.86
67740;BME280;54536;50.090;14.420;2023-03-14T06:09:07;97430.34;;;13.69;60.65
67740;BME280;54536;50.090;14.420;2023-03-14T06:11:33;97429.28;;;13.76;60.11
67740;BME280;54536;50.090;14.420;2023-03-14T06:13:59;97431.34;;;13.74;60.06
67740;BME280;54536;50.090;14.420;2023-03-14T06:16:26;97441.69;;;13.82;59.15
67740;BME280;54536;50.090;14.420;2023-03-14T06:18:52;97465.47;;;13.76;59.30
67740;BME280;54536;50.090;14.420;2023-03-14T06:21:18;97462.81;;;13.82;58.73
67740;BME280;54536;50.090;14.420;2023-03-14T06:23:45;97466.72;;;13.73;58.99
67740;BME280;54536;50.090;14.420;2023-03-14T06:26:11;97478.91;;;13.81;58.70
67740;BME280;54536;50.090;14.420;2023-03-14T06:28:38;97473.00;;;13.86;58.19
67740;BME280;54536;50.090;14.420;2023-03-14T06:31:05;97478.09;;;13.87;58.01
67740;BME280;54536;50.090;14.420;2023-03-14T06:33:32;97479.28;;;13.91;57.99
67740;BME280;54536;50.090;14.420;2023-03-14T06:35:58;97476.66;;;13.85;58.06
67740;BME280;54536;50.090;14.420;2023-03-14T06:38:24;97485.78;;;13.82;57.88
67740;BME280;54536;50.090;14.420;2023-03-14T06:40:50;97473.78;;;13.86;57.75
67740;BME280;54536;50.090;14.420;2023-03-14T06:43:16;97473.78;;;13.86;56.99
67740;BME280;54536;50.090;14.420;2023-03-14T06:45:42;97469.34;;;13.87;57.38
67740;BME280;54536;50.090;14.420;2023-03-14T06:48:08;97469.94;;;13.89;56.89
67740;BME280;54536;50.090;14.420;2023-03-14T06:50:34;97466.47;;;14.01;56.71
67740;BME280;54536;50.090;14.420;2023-03-14T06:53:00;97466.06;;;13.98;56.50
67740;BME280;54536;50.090;14.420;2023-03-14T06:55:27;97461.41;;;13.93;56.87
67740;BME280;54536;50.090;14.420;2023-03-14T06:57:53;97472.38;;;14.03;57.32
67740;BME280;54536;50.090;14.420;2023-03-14T07:00:19;97477.44;;;14.05;56.49
67740;BME280;54536;50.090;14.420;2023-03-14T07:02:45;97480.69;;;14.07;56.36
67740;BME280;54536;50.090;14.420;2023-03-14T07:05:11;97491.44;;;14.12;57.27
67740;BME280;54536;50.090;14.420;2023-03-14T07:07:38;97502.66;;;14.01;56.83
67740;BME280;54536;50.090;14.420;2023-03-14T07:10:04;97495.13;;;14.04;56.47
67740;BME280;54536;50.090;14.420;2023-03-14T07:12:30;97487.22;;;13.98;56.76
67740;BME280;54536;50.090;14.420;2023-03-14T07:14:57;97490.25;;;14.08;56.10
67740;BME280;54536;50.090;14.420;2023-03-14T07:17:23;97489.44;;;14.08;55.96
67740;BME280;54536;50.090;14.420;2023-03-14T07:19:55;97493.69;;;14.22;56.10
67740;BME280;54536;50.090;14.420;2023-03-14T07:22:21;97488.78;;;14.32;55.51
67740;BME280;54536;50.090;14.420;2023-03-14T07:24:47;97487.78;;;14.33;55.36
67740;BME280;54536;50.090;14.420;2023-03-14T07:27:14;97484.50;;;14.31;55.49
67740;BME280;54536;50.090;14.420;2023-03-14T07:29:40;97484.13;;;14.21;55.07
67740;BME280;54536;50.090;14.420;2023-03-14T07:32:09;97493.66;;;14.35;54.66
67740;BME280;54536;50.090;14.420;2023-03-14T07:34:42;97486.97;;;14.33;54.50
67740;BME280;54536;50.090;14.420;2023-03-14T07:37:09;97489.97;;;14.43;54.56
67740;BME280;54536;50.090;14.420;2023-03-14T07:39:41;97487.72;;;14.46;54.01
67740;BME280;54536;50.090;14.420;2023-03-14T07:42:07;97491.41;;;14.45;54.27
67740;BME280;54536;50.090;14.420;2023-03-14T07:44:36;97482.25;;;14.41;54.46
67740;BME280;54536;50.090;14.420;2023-03-14T07:47:02;97484.47;;;14.44;54.03
67740;BME280;54536;50.090;14.420;2023-03-14T07:49:29;97483.06;;;14.55;54.33
67740;BME280;54536;50.090;14.420;2023-03-14T07:52:01;97484.28;;;14.59;53.71
67740;BME280;54536;50.090;14.420;2023-03-14T07:54:28;97482.44;;;14.60;53.77
67740;BME280;54536;50.090;14.420;2023-03-14T07:56:53;97486.69;;;14.61;53.49
67740;BME280;54536;50.090;14.420;2023-03-14T07:59:20;97493.19;;;14.58;52.88
67740;BME280;54536;50.090;14.420;2023-03-14T08:01:46;97497.91;;;14.56;53.72
67740;BME280;54536;50.090;14.420;2023-03-14T08:04:13;97501.59;;;14.55;53.48
67740;BME280;54536;50.090;14.420;2023-03-14T08:06:39;97499.88;;;14.67;52.98
67740;BME280;54536;50.090;14.420;2023-03-14T08:09:06;97495.41;;;14.68;52.64
67740;BME280;54536;50.090;14.420;2023-03-14T08:11:32;97500.13;;;14.66;52.76
67740;BME280;54536;50.090;14.420;2023-03-14T08:14:01;97493.34;;;14.77;52.94
67740;BME280;54536;50.090;14.420;2023-03-14T08:16:27;97489.09;;;14.75;53.08
67740;BME280;54536;50.090;14.420;2023-03-14T08:18:53;97492.50;;;14.83;52.61
67740;BME280;54536;50.090;14.420;2023-03-14T08:21:26;97496.97;;;14.89;52.13
67740;BME280;54536;50.090;14.420;2023-03-14T08:23:52;97495.97;;;14.83;51.65
67740;BME280;54536;50.090;14.420;2023-03-14T08:26:20;97498.19;;;14.86;51.78
67740;BME280;54536;50.090;14.420;2023-03-14T08:28:47;97497.38;;;14.86;52.12
67740;BME280;54536;50.090;14.420;2023-03-14T08:31:13;97498.16;;;14.93;51.64
67740;BME280;54536;50.090;14.420;2023-03-14T08:33:42;97488.22;;;14.88;51.48
67740;BME280;54536;50.090;14.420;2023-03-14T08:36:09;97497.34;;;14.92;51.49
67740;BME280;54536;50.090;14.420;2023-03-14T08:38:35;97505.47;;;15.04;51.05
67740;BME280;54536;50.090;14.420;2023-03-14T08:41:10;97504.41;;;15.12;51.25
67740;BME280;54536;50.090;14.420;2023-03-14T08:43:42;97506.84;;;15.07;51.01
67740;BME280;54536;50.090;14.420;2023-03-14T08:46:10;97506.63;;;15.15;50.88
67740;BME280;54536;50.090;14.420;2023-03-14T08:48:37;97511.25;;;15.19;50.94
67740;BME280;54536;50.090;14.420;2023-03-14T08:51:14;97508.84;;;15.18;49.75
67740;BME280;54536;50.090;14.420;2023-03-14T08:53:41;97506.63;;;15.15;49.67
67740;BME280;54536;50.090;14.420;2023-03-14T08:56:09;97507.56;;;15.27;49.70
67740;BME280;54536;50.090;14.420;2023-03-14T08:58:37;97508.84;;;15.18;50.33
67740;BME280;54536;50.090;14.420;2023-03-14T09:01:09;97509.34;;;15.33;50.08
67740;BME280;54536;50.090;14.420;2023-03-14T09:03:37;97520.59;;;15.29;49.61
67740;BME280;54536;50.090;14.420;2023-03-14T09:06:05;97520.03;;;15.20;49.54
67740;BME280;54536;50.090;14.420;2023-03-14T09:08:33;97521.28;;;15.17;50.08
67740;BME280;54536;50.090;14.420;2023-03-14T09:10:59;97523.09;;;15.17;49.52
67740;BME280;54536;50.090;14.420;2023-03-14T09:13:26;97533.31;;;15.07;49.28
67740;BME280;54536;50.090;14.420;2023-03-14T09:15:54;97533.28;;;15.13;49.19
67740;BME280;54536;50.090;14.420;2023-03-14T09:18:20;97535.66;;;15.28;49.96
67740;BME280;54536;50.090;14.420;2023-03-14T09:20:53;97535.06;;;15.26;48.39
67740;BME280;54536;50.090;14.420;2023-03-14T09:23:21;97534.13;;;15.45;48.03
67740;BME280;54536;50.090;14.420;2023-03-14T09:25:48;97543.28;;;15.50;47.60
67740;BME280;54536;50.090;14.420;2023-03-14T09:28:15;97542.09;;;15.45;47.74
67740;BME280;54536;50.090;14.420;2023-03-14T09:30:41;97541.28;;;15.45;47.72
67740;BME280;54536;50.090;14.420;2023-03-14T09:33:07;97545.81;;;15.38;47.62
67740;BME280;54536;50.090;14.420;2023-03-14T09:35:34;97532.56;;;15.38;47.34
67740;BME280;54536;50.090;14.420;2023-03-14T09:38:00;97532.00;;;15.29;47.47
67740;BME280;54536;50.090;14.420;2023-03-14T09:40:33;97525.88;;;15.29;47.00
67740;BME280;54536;50.090;14.420;2023-03-14T09:43:00;97518.75;;;15.29;47.05
67740;BME280;54536;50.090;14.420;2023-03-14T09:45:31;97514.66;;;15.33;47.08
67740;BME280;54536;50.090;14.420;2023-03-14T09:48:05;97505.34;;;15.56;46.60
67740;BME280;54536;50.090;14.420;2023-03-14T09:50:49;97518.09;;;15.40;46.49
67740;BME280;54536;50.090;14.420;2023-03-14T09:53:27;97517.00;;;15.48;46.33
67740;BME280;54536;50.090;14.420;2023-03-14T09:55:57;97515.03;;;15.43;46.12
67740;BME280;54536;50.090;14.420;2023-03-14T09:58:25;97517.94;;;15.29;47.29
67740;BME280;54536;50.090;14.420;2023-03-14T10:00:55;97521.78;;;15.33;46.34
67740;BME280;54536;50.090;14.420;2023-03-14T10:03:25;97520.38;;;15.30;46.96
67740;BME280;54536;50.090;14.420;2023-03-14T10:05:52;97517.34;;;15.27;46.47
67740;BME280;54536;50.090;14.420;2023-03-14T10:08:20;97521.59;;;15.34;46.49
67740;BME280;54536;50.090;14.420;2023-03-14T10:10:47;97533.00;;;15.35;46.89
67740;BME280;54536;50.090;14.420;2023-03-14T10:13:24;97519.94;;;15.33;46.59
67740;BME280;54536;50.090;14.420;2023-03-14T10:16:00;97514.88;;;15.32;46.55
67740;BME280;54536;50.090;14.420;2023-03-14T10:18:32;97512.66;;;15.29;46.85
67740;BME280;54536;50.090;14.420;2023-03-14T10:23:34;97514.50;;;15.28;46.38
67740;BME280;54536;50.090;14.420;2023-03-14T10:26:07;97510.81;;;15.29;46.26
67740;BME280;54536;50.090;14.420;2023-03-14T10:28:41;97517.09;;;15.35;46.25
67740;BME280;54536;50.090;14.420;2023-03-14T10:31:08;97518.09;;;15.40;46.48
67740;BME280;54536;50.090;14.420;2023-03-14T10:33:37;97515.44;;;15.40;45.67
67740;BME280;54536;50.090;14.420;2023-03-14T10:36:20;97514.31;;;15.23;46.32
67740;BME280;54536;50.090;14.420;2023-03-14T10:38:47;97512.25;;;15.25;46.23
67740;BME280;54536;50.090;14.420;2023-03-14T10:41:40;97507.78;;;15.26;46.45
67740;BME280;54536;50.090;14.420;2023-03-14T10:44:11;97507.31;;;15.35;45.98
67740;BME280;54536;50.090;14.420;2023-03-14T10:46:38;97502.44;;;15.32;46.00
67740;BME280;54536;50.090;14.420;2023-03-14T10:49:30;97503.81;;;15.41;46.59
67740;BME280;54536;50.090;14.420;2023-03-14T10:52:10;97509.31;;;15.40;46.20
67740;BME280;54536;50.090;14.420;2023-03-14T10:54:39;97510.41;;;15.26;46.44
67740;BME280;54536;50.090;14.420;2023-03-14T10:57:05;97502.88;;;15.29;46.72
67740;BME280;54536;50.090;14.420;2023-03-14T10:59:39;97509.00;;;15.23;46.63
67740;BME280;54536;50.090;14.420;2023-03-14T11:10:03;97516.09;;;15.29;45.20
67740;BME280;54536;50.090;14.420;2023-03-14T11:12:49;97515.59;;;15.07;46.07
67740;BME280;54536;50.090;14.420;2023-03-14T11:15:32;97520.16;;;15.32;45.80
67740;BME280;54536;50.090;14.420;2023-03-14T11:20:59;97512.66;;;15.29;45.76
67740;BME280;54536;50.090;14.420;2023-03-14T11:28:41;97516.28;;;15.34;45.45
67740;BME280;54536;50.090;14.420;2023-03-14T11:31:28;97516.25;;;15.41;44.93
67740;BME280;54536;50.090;14.420;2023-03-14T11:39:17;97498.13;;;15.38;45.34
67740;BME280;54536;50.090;14.420;2023-03-14T11:41:52;97496.34;;;15.32;45.08
67740;BME280;54536;50.090;14.420;2023-03-14T11:49:58;97484.31;;;15.29;45.44
67740;BME280;54536;50.090;14.420;2023-03-14T11:52:34;97498.09;;;15.44;46.24
67740;BME280;54536;50.090;14.420;2023-03-14T11:55:18;97488.72;;;15.42;45.18
67740;BME280;54536;50.090;14.420;2023-03-14T11:57:45;97488.47;;;15.50;45.70
67740;BME280;54536;50.090;14.420;2023-03-14T12:00:22;97489.38;;;15.37;44.87
67740;BME280;54536;50.090;14.420;2023-03-14T12:11:02;97487.13;;;15.41;44.82
67740;BME280;54536;50.090;14.420;2023-03-14T12:13:37;97495.88;;;15.41;44.65
67740;BME280;54536;50.090;14.420;2023-03-14T12:16:07;97499.19;;;15.30;44.47
67740;BME280;54536;50.090;14.420;2023-03-14T12:18:36;97491.56;;;15.47;45.02
67740;BME280;54536;50.090;14.420;2023-03-14T12:21:11;97487.59;;;15.31;44.98
67740;BME280;54536;50.090;14.420;2023-03-14T12:23:41;97477.63;;;15.27;44.99
67740;BME280;54536;50.090;14.420;2023-03-14T12:28:39;97470.38;;;15.47;43.84
67740;BME280;54536;50.090;14.420;2023-03-14T12:39:20;97451.13;;;15.58;44.12
67740;BME280;54536;50.090;14.420;2023-03-14T12:42:35;97455.28;;;15.48;43.80
67740;BME280;54536;50.090;14.420;2023-03-14T12:44:51;97449.69;;;15.56;43.28
67740;BME280;54536;50.090;14.420;2023-03-14T12:49:49;97447.28;;;15.79;43.31
67740;BME280;54536;50.090;14.420;2023-03-14T12:52:20;97446.81;;;15.64;43.08
67740;BME280;54536;50.090;14.420;2023-03-14T12:59:59;97440.59;;;15.77;43.18
67740;BME280;54536;50.090;14.420;2023-03-14T13:02:41;97436.91;;;15.78;43.18
67740;BME280;54536;50.090;14.420;2023-03-14T13:05:19;97436.56;;;15.74;43.24
67740;BME280;54536;50.090;14.420;2023-03-14T13:10:22;97423.66;;;16.03;43.14
67740;BME280;54536;50.090;14.420;2023-03-14T13:15:42;97424.97;;;15.94;42.68
67740;BME280;54536;50.090;14.420;2023-03-14T13:18:12;97417.66;;;16.07;42.05
67740;BME280;54536;50.090;14.420;2023-03-14T13:20:58;97423.34;;;15.93;42.23
67740;BME280;54536;50.090;14.420;2023-03-14T13:23:27;97420.28;;;15.89;42.47
67740;BME280;54536;50.090;14.420;2023-03-14T13:25:56;97415.59;;;15.91;42.95
67740;BME280;54536;50.090;14.420;2023-03-14T13:28:22;97407.50;;;16.04;42.31
67740;BME280;54536;50.090;14.420;2023-03-14T13:30:58;97406.03;;;16.08;42.44
67740;BME280;54536;50.090;14.420;2023-03-14T13:33:25;97402.44;;;16.03;42.57
67740;BME280;54536;50.090;14.420;2023-03-14T13:36:02;97406.19;;;16.13;41.92
67740;BME280;54536;50.090;14.420;2023-03-14T13:38:32;97398.44;;;16.12;42.35
67740;BME280;54536;50.090;14.420;2023-03-14T13:41:03;97401.78;;;16.26;41.54
67740;BME280;54536;50.090;14.420;2023-03-14T13:43:30;97397.47;;;16.25;41.75
67740;BME280;54536;50.090;14.420;2023-03-14T13:46:07;97394.59;;;16.45;41.26
67740;BME280;54536;50.090;14.420;2023-03-14T13:48:58;97397.25;;;16.45;41.71
67740;BME280;54536;50.090;14.420;2023-03-14T13:51:27;97403.78;;;16.60;40.66
67740;BME280;54536;50.090;14.420;2023-03-14T13:53:57;97404.91;;;16.71;41.39
67740;BME280;54536;50.090;14.420;2023-03-14T13:56:29;97394.03;;;16.73;40.62
67740;BME280;54536;50.090;14.420;2023-03-14T13:58:56;97395.91;;;16.54;40.89
67740;BME280;54536;50.090;14.420;2023-03-14T14:01:30;97403.94;;;16.47;41.48
67740;BME280;54536;50.090;14.420;2023-03-14T14:04:06;97392.34;;;16.48;41.40